Time;durP1;ratioP1;P1;durP2;ratioP2;P2;SDS_P1;SDS_P2;PMS_P1;PMS_P2;Temp;Humidity;BMP_temperature;BMP_pressure;BME280_temperature;BME280_humidity;BME280_pressure;Samples;Min_cycle;Max_cycle;Signal;HPM_P1;HPM_P2
2022/06/21 00:00:07;;;;;;;;;;;15.40;93.20;;;;;;5059339;28;19924;-86
2022/06/21 00:02:35;;;;;;;;;;;15.30;92.90;;;;;;5046622;28;19928;-85
2022/06/21 00:05:05;;;;;;;;;;;15.20;93.00;;;;;;5078786;28;20233;-86
2022/06/21 00:07:33;;;;;;;;;;;15.20;92.90;;;;;;5062117;28;19939;-86
2022/06/21 00:10:04;;;;;;;;;;;15.30;93.30;;;;;;5058951;28;19928;-86
2022/06/21 00:12:32;;;;;;;;;;;14.90;93.50;;;;;;5058135;28;20421;-85
2022/06/21 00:15:00;;;;;;;;;;;14.80;93.90;;;;;;5075181;28;19924;-86
2022/06/21 00:17:28;;;;;;;;;;;14.70;93.80;;;;;;5035143;28;20092;-85
2022/06/21 00:19:56;;;;;;;;;;;14.70;94.00;;;;;;5060436;28;19928;-85
2022/06/21 00:22:33;;;;;;;;;;;14.60;94.30;;;;;;5090714;28;19929;-85
2022/06/21 00:25:05;;;;;;;;;;;14.60;94.30;;;;;;5062558;28;19924;-85
2022/06/21 00:27:34;;;;;;;;;;;14.50;94.20;;;;;;5058302;28;19924;-85
2022/06/21 00:30:03;;;;;;;;;;;14.50;94.30;;;;;;5085744;28;20383;-85
2022/06/21 00:32:31;;;;;;;;;;;14.40;94.40;;;;;;5078868;28;19929;-85
2022/06/21 00:35:07;;;;;;;;;;;14.40;94.50;;;;;;5065046;28;19932;-85
2022/06/21 00:37:38;;;;;;;;;;;14.40;94.40;;;;;;5057216;28;20110;-87
2022/06/21 00:40:24;;;;;;;;;;;14.40;94.80;;;;;;5091045;28;19934;-85
2022/06/21 00:42:54;;;;;;;;;;;14.30;95.00;;;;;;5085170;28;19915;-84
2022/06/21 00:45:31;;;;;;;;;;;14.20;94.60;;;;;;5051104;28;19997;-85
2022/06/21 00:48:10;;;;;;;;;;;14.10;94.70;;;;;;5079248;28;19924;-85
2022/06/21 00:51:05;;;;;;;;;;;14.10;94.70;;;;;;5082978;28;19927;-84
2022/06/21 00:53:36;;;;;;;;;;;14.10;95.10;;;;;;5083124;28;19931;-85
2022/06/21 00:56:07;;;;;;;;;;;14.00;95.30;;;;;;5078884;28;19940;-87
2022/06/21 00:58:41;;;;;;;;;;;14.00;95.40;;;;;;5091917;28;19939;-86
2022/06/21 01:01:26;;;;;;;;;;;13.90;95.60;;;;;;5089656;28;19924;-85
2022/06/21 01:03:58;;;;;;;;;;;13.90;96.20;;;;;;5106684;28;19928;-85
2022/06/21 01:06:31;;;;;;;;;;;13.90;96.00;;;;;;5073642;28;19939;-86
2022/06/21 01:09:19;;;;;;;;;;;13.90;95.90;;;;;;5081475;28;19950;-86
2022/06/21 01:12:13;;;;;;;;;;;13.90;95.90;;;;;;5077218;28;19924;-87
2022/06/21 01:14:46;;;;;;;;;;;13.90;95.80;;;;;;5078896;28;19924;-87
2022/06/21 01:17:17;;;;;;;;;;;13.40;95.90;;;;;;5091733;28;19928;-87
2022/06/21 01:19:49;;;;;;;;;;;13.80;96.20;;;;;;5093415;28;20124;-86
2022/06/21 01:22:23;;;;;;;;;;;13.60;96.40;;;;;;5094418;28;20086;-86
2022/06/21 01:25:09;;;;;;;;;;;13.50;96.70;;;;;;5091967;28;19937;-85
2022/06/21 01:27:39;;;;;;;;;;;13.40;96.70;;;;;;5083626;28;19928;-85
2022/06/21 01:30:09;;;;;;;;;;;13.30;97.10;;;;;;5074514;28;19935;-85
2022/06/21 01:32:37;;;;;;;;;;;13.40;97.10;;;;;;5075438;28;19928;-85
2022/06/21 01:35:09;;;;;;;;;;;13.30;97.10;;;;;;5082392;28;19929;-86
2022/06/21 01:37:39;;;;;;;;;;;13.30;97.10;;;;;;5093859;28;19935;-87
2022/06/21 01:40:17;;;;;;;;;;;13.30;97.20;;;;;;4740618;27;10000557;-85
2022/06/21 01:42:50;;;;;;;;;;;13.30;97.10;;;;;;5076155;28;20439;-87
2022/06/21 01:45:28;;;;;;;;;;;13.20;97.20;;;;;;5082427;28;19924;-87
2022/06/21 01:48:00;;;;;;;;;;;13.20;97.30;;;;;;5096266;28;19924;-86
2022/06/21 01:50:36;;;;;;;;;;;13.10;97.40;;;;;;5097981;28;20412;-85
2022/06/21 01:53:05;;;;;;;;;;;13.10;97.60;;;;;;5098226;28;19928;-84
2022/06/21 01:55:40;;;;;;;;;;;13.00;97.60;;;;;;5079079;28;19924;-87
2022/06/21 01:58:14;;;;;;;;;;;12.90;97.70;;;;;;5116420;28;20749;-86
2022/06/21 02:00:46;;;;;;;;;;;12.90;97.90;;;;;;5117829;28;20303;-86
2022/06/21 02:03:16;;;;;;;;;;;12.90;98.20;;;;;;5081041;28;19928;-86
2022/06/21 02:05:50;;;;;;;;;;;12.80;98.30;;;;;;5114764;28;19934;-84
2022/06/21 02:08:21;;;;;;;;;;;12.80;98.50;;;;;;5108725;28;20303;-87
2022/06/21 02:10:51;;;;;;;;;;;12.70;98.60;;;;;;5110040;28;19931;-85
2022/06/21 02:13:20;;;;;;;;;;;12.70;98.80;;;;;;5114669;28;19940;-84
2022/06/21 02:16:04;;;;;;;;;;;12.60;99.10;;;;;;5099540;28;19931;-84
2022/06/21 02:18:33;;;;;;;;;;;13.00;99.30;;;;;;5102479;28;19924;-86
2022/06/21 02:21:04;;;;;;;;;;;12.80;99.10;;;;;;5118666;28;19930;-85
2022/06/21 02:23:32;;;;;;;;;;;12.50;99.30;;;;;;5100912;28;19924;-86
2022/06/21 02:26:00;;;;;;;;;;;12.40;99.50;;;;;;5115098;28;19927;-85
2022/06/21 02:28:30;;;;;;;;;;;12.40;99.50;;;;;;5119041;28;19935;-87
2022/06/21 02:31:02;;;;;;;;;;;12.40;99.30;;;;;;5119333;28;19931;-85
2022/06/21 02:33:32;;;;;;;;;;;12.40;99.30;;;;;;5107182;28;19927;-85
2022/06/21 02:36:10;;;;;;;;;;;12.40;99.40;;;;;;5072441;28;20005;-89
2022/06/21 02:38:48;;;;;;;;;;;12.40;99.20;;;;;;5102030;28;19950;-87
2022/06/21 02:41:29;;;;;;;;;;;12.40;99.20;;;;;;5081758;28;20379;-87
2022/06/21 02:44:06;;;;;;;;;;;12.40;99.30;;;;;;5088086;28;19923;-88
2022/06/21 02:46:36;;;;;;;;;;;12.40;99.40;;;;;;5105421;28;19924;-87
2022/06/21 02:49:23;;;;;;;;;;;12.40;99.20;;;;;;5111568;28;19928;-87
2022/06/21 02:51:57;;;;;;;;;;;12.40;99.10;;;;;;5116475;28;19930;-88
2022/06/21 02:54:38;;;;;;;;;;;12.40;99.20;;;;;;5097947;28;19924;-88
2022/06/21 02:57:11;;;;;;;;;;;12.30;99.50;;;;;;5080055;28;19927;-86
2022/06/21 02:59:40;;;;;;;;;;;12.30;99.20;;;;;;5119987;28;19950;-86
2022/06/21 03:02:10;;;;;;;;;;;12.10;99.80;;;;;;5123877;28;19923;-86
2022/06/21 03:04:52;;;;;;;;;;;12.10;99.40;;;;;;5107399;28;19931;-87
2022/06/21 03:07:28;;;;;;;;;;;12.10;99.50;;;;;;5106067;28;19924;-87
2022/06/21 03:09:56;;;;;;;;;;;12.50;99.60;;;;;;5120683;28;20172;-87
2022/06/21 03:12:26;;;;;;;;;;;12.00;99.70;;;;;;5115642;27;19924;-85
2022/06/21 03:14:57;;;;;;;;;;;12.00;99.70;;;;;;5098601;28;19934;-87
2022/06/21 03:17:35;;;;;;;;;;;12.00;99.60;;;;;;5080245;28;19924;-86
2022/06/21 03:20:13;;;;;;;;;;;12.00;99.60;;;;;;5103962;28;19924;-87
2022/06/21 03:22:45;;;;;;;;;;;11.90;99.80;;;;;;5120608;28;19924;-85
2022/06/21 03:25:20;;;;;;;;;;;11.90;99.70;;;;;;5120274;28;19924;-87
2022/06/21 03:27:53;;;;;;;;;;;11.80;99.80;;;;;;5102953;28;19924;-87
2022/06/21 03:30:23;;;;;;;;;;;11.70;99.90;;;;;;5103296;28;19924;-84
2022/06/21 03:32:54;;;;;;;;;;;11.70;99.90;;;;;;5122680;28;19924;-86
2022/06/21 03:35:22;;;;;;;;;;;11.60;99.90;;;;;;5119293;28;19932;-84
2022/06/21 03:37:50;;;;;;;;;;;11.70;99.90;;;;;;5115088;28;20379;-85
2022/06/21 03:43:11;;;;;;;;;;;11.60;99.90;;;;;;5123552;28;19928;-84
2022/06/21 03:45:40;;;;;;;;;;;11.60;99.90;;;;;;5074921;28;19923;-85
2022/06/21 03:48:15;;;;;;;;;;;11.60;99.90;;;;;;5124491;28;19927;-86
2022/06/21 03:50:46;;;;;;;;;;;11.60;99.90;;;;;;5121088;28;19924;-85
2022/06/21 03:53:17;;;;;;;;;;;11.50;99.90;;;;;;5091122;28;19924;-84
2022/06/21 03:55:46;;;;;;;;;;;11.50;99.90;;;;;;5125063;28;19928;-85
2022/06/21 03:58:28;;;;;;;;;;;11.40;99.90;;;;;;5107077;28;19927;-83
2022/06/21 04:01:09;;;;;;;;;;;11.30;99.90;;;;;;5124886;28;19928;-86
2022/06/21 04:03:43;;;;;;;;;;;11.30;99.90;;;;;;5128436;28;19924;-83
2022/06/21 04:06:30;;;;;;;;;;;11.30;99.90;;;;;;5113370;28;19928;-84
2022/06/21 04:09:06;;;;;;;;;;;11.40;99.90;;;;;;5113178;28;19927;-86
2022/06/21 04:11:41;;;;;;;;;;;11.40;99.90;;;;;;5109770;28;19924;-83
2022/06/21 04:14:24;;;;;;;;;;;11.40;99.90;;;;;;5119937;28;19927;-85
2022/06/21 04:16:52;;;;;;;;;;;11.40;99.90;;;;;;5124687;28;19927;-87
2022/06/21 04:19:25;;;;;;;;;;;11.40;99.90;;;;;;5119423;28;19934;-84
2022/06/21 04:21:57;;;;;;;;;;;11.40;99.90;;;;;;5129910;28;19924;-84
2022/06/21 04:24:36;;;;;;;;;;;11.40;99.90;;;;;;5130674;28;20001;-84
2022/06/21 04:27:12;;;;;;;;;;;11.40;99.90;;;;;;5130445;28;19928;-85
2022/06/21 04:29:42;;;;;;;;;;;11.40;99.90;;;;;;5103347;28;19927;-84
2022/06/21 04:32:24;;;;;;;;;;;11.50;99.90;;;;;;5119658;28;19924;-84
2022/06/21 04:34:57;;;;;;;;;;;11.40;99.90;;;;;;5113041;28;19924;-84
2022/06/21 04:37:29;;;;;;;;;;;11.40;99.90;;;;;;5108229;28;19931;-85
2022/06/21 04:40:17;;;;;;;;;;;11.40;99.90;;;;;;5098257;28;19931;-85
2022/06/21 04:42:49;;;;;;;;;;;11.40;99.90;;;;;;5111508;28;20403;-87
2022/06/21 04:45:25;;;;;;;;;;;11.40;99.90;;;;;;5122510;28;20013;-86
2022/06/21 04:47:53;;;;;;;;;;;11.50;99.90;;;;;;5096392;28;19920;-85
2022/06/21 04:50:39;;;;;;;;;;;11.50;99.90;;;;;;5124085;28;19927;-86
2022/06/21 04:53:15;;;;;;;;;;;11.60;99.90;;;;;;5123533;28;19927;-84
2022/06/21 04:55:47;;;;;;;;;;;11.90;99.90;;;;;;5112074;28;19931;-87
2022/06/21 04:58:15;;;;;;;;;;;11.70;99.90;;;;;;5110031;28;19927;-84
2022/06/21 05:00:46;;;;;;;;;;;11.80;99.90;;;;;;5129172;27;20366;-84
2022/06/21 05:03:33;;;;;;;;;;;11.80;99.90;;;;;;5094749;28;19936;-86
2022/06/21 05:06:03;;;;;;;;;;;11.90;99.90;;;;;;5102287;28;20264;-85
2022/06/21 05:08:31;;;;;;;;;;;11.90;99.90;;;;;;5097204;28;19924;-87
2022/06/21 05:11:04;;;;;;;;;;;12.10;99.90;;;;;;5118733;28;19924;-88
2022/06/21 05:13:40;;;;;;;;;;;12.10;99.90;;;;;;5114664;28;19924;-86
2022/06/21 05:16:32;;;;;;;;;;;12.20;99.90;;;;;;5117667;28;20003;-86
2022/06/21 05:19:15;;;;;;;;;;;12.30;99.90;;;;;;5101004;28;19928;-86
2022/06/21 05:21:44;;;;;;;;;;;12.30;99.90;;;;;;5096006;28;19931;-86
2022/06/21 05:24:16;;;;;;;;;;;12.40;99.90;;;;;;5101458;28;19931;-85
2022/06/21 05:27:06;;;;;;;;;;;12.40;99.90;;;;;;5096679;28;19928;-88
2022/06/21 05:29:45;;;;;;;;;;;12.50;99.90;;;;;;5104598;28;19928;-85
2022/06/21 05:32:27;;;;;;;;;;;12.60;99.90;;;;;;5099215;28;19935;-87
2022/06/21 05:34:59;;;;;;;;;;;12.60;99.90;;;;;;5082959;28;19924;-86
2022/06/21 05:37:31;;;;;;;;;;;12.70;99.90;;;;;;5110423;28;19924;-86
2022/06/21 05:40:04;;;;;;;;;;;12.80;99.90;;;;;;5110660;28;19928;-88
2022/06/21 05:42:59;;;;;;;;;;;12.90;99.90;;;;;;5090737;28;20383;-87
2022/06/21 05:45:34;;;;;;;;;;;13.00;99.90;;;;;;5069363;28;19935;-85
2022/06/21 05:48:07;;;;;;;;;;;13.10;99.90;;;;;;5109843;28;19924;-85
2022/06/21 05:50:40;;;;;;;;;;;13.20;99.80;;;;;;5072481;28;19924;-85
2022/06/21 05:53:49;;;;;;;;;;;13.30;99.70;;;;;;5101715;28;19924;-86
2022/06/21 05:56:20;;;;;;;;;;;13.40;99.50;;;;;;5101872;28;19935;-86
2022/06/21 05:59:02;;;;;;;;;;;13.50;99.40;;;;;;5084879;28;19924;-86
2022/06/21 06:02:03;;;;;;;;;;;13.60;99.00;;;;;;5109006;28;19927;-85
2022/06/21 06:04:42;;;;;;;;;;;13.80;98.80;;;;;;5118595;28;19931;-86
2022/06/21 06:07:35;;;;;;;;;;;13.80;98.40;;;;;;5100741;28;19935;-87
2022/06/21 06:13:39;;;;;;;;;;;14.00;98.00;;;;;;5093859;28;19931;-83
2022/06/21 06:16:57;;;;;;;;;;;14.00;98.00;;;;;;5110698;28;19942;-86
2022/06/21 06:19:39;;;;;;;;;;;14.10;97.60;;;;;;5088393;28;19927;-87
2022/06/21 06:22:12;;;;;;;;;;;14.20;97.40;;;;;;5076084;28;19924;-86
2022/06/21 06:24:47;;;;;;;;;;;14.30;97.00;;;;;;5097212;28;19939;-86
2022/06/21 06:27:33;;;;;;;;;;;14.40;97.10;;;;;;5096646;28;19928;-87
2022/06/21 06:30:03;;;;;;;;;;;14.50;97.00;;;;;;5127620;28;19923;-87
2022/06/21 06:32:45;;;;;;;;;;;14.40;96.80;;;;;;5095730;28;19947;-87
2022/06/21 06:35:21;;;;;;;;;;;14.60;96.60;;;;;;5111262;28;19931;-84
2022/06/21 06:37:55;;;;;;;;;;;14.60;96.40;;;;;;5095375;28;19931;-86
2022/06/21 06:40:26;;;;;;;;;;;14.80;96.50;;;;;;5115101;28;19924;-86
2022/06/21 06:43:01;;;;;;;;;;;14.80;96.60;;;;;;5113826;28;19928;-87
2022/06/21 06:45:35;;;;;;;;;;;14.90;96.40;;;;;;5112287;28;19924;-87
2022/06/21 06:48:12;;;;;;;;;;;15.00;96.30;;;;;;5100324;28;19924;-88
2022/06/21 06:50:47;;;;;;;;;;;15.20;96.30;;;;;;5113718;28;19931;-86
2022/06/21 06:53:24;;;;;;;;;;;15.30;96.00;;;;;;5104385;28;20197;-86
2022/06/21 06:55:56;;;;;;;;;;;15.50;95.80;;;;;;5101332;28;19924;-87
2022/06/21 06:58:48;;;;;;;;;;;15.60;95.50;;;;;;4781618;27;9999830;-87
2022/06/21 07:01:19;;;;;;;;;;;15.70;95.30;;;;;;5094143;28;19912;-87
2022/06/21 07:03:53;;;;;;;;;;;15.80;94.90;;;;;;5115222;28;19924;-86
2022/06/21 07:06:43;;;;;;;;;;;15.90;94.80;;;;;;5129597;28;20110;-86
2022/06/21 07:09:14;;;;;;;;;;;15.90;94.10;;;;;;5116736;28;19934;-86
2022/06/21 07:11:50;;;;;;;;;;;15.90;93.40;;;;;;5118344;28;19927;-85
2022/06/21 07:14:20;;;;;;;;;;;16.00;93.90;;;;;;5101404;28;19928;-86
2022/06/21 07:16:53;;;;;;;;;;;16.10;93.60;;;;;;5084203;28;19931;-87
2022/06/21 07:19:22;;;;;;;;;;;16.20;94.00;;;;;;5101192;28;19951;-85
2022/06/21 07:21:50;;;;;;;;;;;16.30;93.60;;;;;;5072686;28;19935;-88
2022/06/21 07:24:20;;;;;;;;;;;16.30;93.20;;;;;;5115295;28;19928;-86
2022/06/21 07:26:49;;;;;;;;;;;16.40;92.70;;;;;;5098815;28;19931;-87
2022/06/21 07:29:30;;;;;;;;;;;16.50;93.30;;;;;;5085597;28;20195;-85
2022/06/21 07:32:15;;;;;;;;;;;16.60;92.90;;;;;;5092031;28;19935;-87
2022/06/21 07:34:48;;;;;;;;;;;16.60;92.90;;;;;;5099646;28;19935;-87
2022/06/21 07:37:18;;;;;;;;;;;16.70;92.70;;;;;;5081888;28;19942;-85
2022/06/21 07:39:52;;;;;;;;;;;16.80;92.60;;;;;;5118842;28;20109;-86
2022/06/21 07:42:24;;;;;;;;;;;17.00;92.50;;;;;;5101950;28;19928;-84
2022/06/21 07:45:08;;;;;;;;;;;16.90;92.50;;;;;;5095613;28;19924;-86
2022/06/21 07:47:42;;;;;;;;;;;17.00;92.20;;;;;;5113752;28;20397;-86
2022/06/21 07:50:15;;;;;;;;;;;17.10;91.60;;;;;;5094293;28;21178;-86
2022/06/21 07:52:49;;;;;;;;;;;17.10;91.60;;;;;;5109935;28;19924;-87
2022/06/21 07:55:27;;;;;;;;;;;17.10;91.50;;;;;;5094526;28;19932;-85
2022/06/21 07:58:00;;;;;;;;;;;17.20;91.00;;;;;;5078638;28;19927;-88
2022/06/21 08:06:41;;;;;;;;;;;17.20;90.70;;;;;;5095581;28;19924;-85
2022/06/21 08:09:18;;;;;;;;;;;17.50;91.70;;;;;;5096161;28;19928;-86
2022/06/21 08:11:47;;;;;;;;;;;17.10;91.60;;;;;;5111506;28;19928;-86
2022/06/21 08:14:18;;;;;;;;;;;17.60;91.50;;;;;;5119304;28;19927;-87
2022/06/21 08:17:05;;;;;;;;;;;17.60;91.20;;;;;;5099187;28;19930;-85
2022/06/21 08:19:59;;;;;;;;;;;17.70;91.50;;;;;;5124039;28;19934;-85
2022/06/21 08:22:42;;;;;;;;;;;17.80;91.20;;;;;;5107199;28;19928;-86
2022/06/21 08:25:43;;;;;;;;;;;17.80;91.00;;;;;;5102174;28;19931;-85
2022/06/21 08:28:14;;;;;;;;;;;17.80;90.80;;;;;;5037918;28;19931;-84
2022/06/21 08:31:00;;;;;;;;;;;18.00;90.10;;;;;;5084297;28;19928;-84
2022/06/21 08:33:36;;;;;;;;;;;18.10;89.70;;;;;;5091757;28;19943;-85
2022/06/21 08:36:14;;;;;;;;;;;18.00;90.00;;;;;;5088783;28;19924;-85
2022/06/21 08:38:42;;;;;;;;;;;18.20;89.20;;;;;;5102559;28;19924;-87
2022/06/21 08:44:33;;;;;;;;;;;18.40;88.00;;;;;;5115136;28;20189;-86
2022/06/21 08:47:08;;;;;;;;;;;18.40;88.10;;;;;;5101766;28;19946;-86
2022/06/21 08:50:05;;;;;;;;;;;18.50;88.20;;;;;;5090524;28;19931;-85
2022/06/21 08:52:56;;;;;;;;;;;18.60;87.50;;;;;;5098761;28;19923;-85
2022/06/21 08:55:29;;;;;;;;;;;18.60;86.80;;;;;;5120460;27;19930;-86
2022/06/21 08:58:02;;;;;;;;;;;18.80;88.50;;;;;;5114996;28;19954;-85
2022/06/21 09:00:33;;;;;;;;;;;19.40;88.10;;;;;;5103473;28;19927;-85
2022/06/21 09:03:32;;;;;;;;;;;18.90;87.90;;;;;;5102134;28;19928;-86
2022/06/21 09:06:01;;;;;;;;;;;19.10;88.60;;;;;;5126677;28;19924;-86
2022/06/21 09:08:42;;;;;;;;;;;19.10;89.30;;;;;;5115517;28;19924;-85
2022/06/21 09:11:36;;;;;;;;;;;19.20;89.20;;;;;;5094972;28;19924;-84
2022/06/21 09:14:24;;;;;;;;;;;19.20;89.30;;;;;;5113652;28;19935;-83
2022/06/21 09:16:53;;;;;;;;;;;19.30;88.10;;;;;;5111813;28;20314;-84
2022/06/21 09:19:39;;;;;;;;;;;19.40;89.20;;;;;;5113326;28;19923;-83
2022/06/21 09:22:15;;;;;;;;;;;19.50;89.20;;;;;;5096431;28;19943;-84
2022/06/21 09:24:56;;;;;;;;;;;19.60;88.50;;;;;;5095245;28;19927;-84
2022/06/21 09:27:33;;;;;;;;;;;19.70;87.50;;;;;;5095221;28;19931;-83
2022/06/21 09:30:10;;;;;;;;;;;19.80;87.70;;;;;;5094848;28;19924;-83
2022/06/21 09:32:58;;;;;;;;;;;19.90;87.60;;;;;;5094626;28;19931;-83
2022/06/21 09:35:39;;;;;;;;;;;20.00;86.80;;;;;;5097109;28;19935;-84
2022/06/21 09:38:46;;;;;;;;;;;20.00;87.10;;;;;;5077321;28;19927;-83
2022/06/21 09:41:17;;;;;;;;;;;20.00;87.10;;;;;;5029557;28;20411;-83
2022/06/21 09:43:48;;;;;;;;;;;18.70;84.10;;;;;;5096188;28;19938;-84
2022/06/21 09:46:20;;;;;;;;;;;20.10;85.30;;;;;;5112723;28;19928;-83
2022/06/21 09:48:54;;;;;;;;;;;19.90;85.60;;;;;;5090043;28;19939;-82
2022/06/21 09:51:35;;;;;;;;;;;19.90;84.40;;;;;;5087510;28;19928;-85
2022/06/21 09:54:42;;;;;;;;;;;19.90;84.70;;;;;;5089646;28;19924;-84
2022/06/21 09:57:30;;;;;;;;;;;20.00;82.10;;;;;;4995003;28;19958;-82
2022/06/21 10:00:10;;;;;;;;;;;20.10;79.50;;;;;;5013460;28;19925;-84
2022/06/21 10:03:03;;;;;;;;;;;20.30;80.40;;;;;;5074509;28;19924;-84
2022/06/21 10:05:34;;;;;;;;;;;20.50;80.50;;;;;;5090815;28;19931;-83
2022/06/21 10:08:12;;;;;;;;;;;20.60;81.80;;;;;;5092405;28;20700;-83
2022/06/21 10:10:51;;;;;;;;;;;20.60;79.20;;;;;;5062884;28;19928;-84
2022/06/21 10:13:27;;;;;;;;;;;20.70;79.40;;;;;;5099884;28;19924;-85
2022/06/21 10:16:05;;;;;;;;;;;20.60;80.40;;;;;;5090474;28;19924;-82
2022/06/21 10:18:47;;;;;;;;;;;20.60;78.90;;;;;;5058483;28;19924;-81
2022/06/21 10:21:33;;;;;;;;;;;20.80;80.30;;;;;;5092770;28;19931;-82
2022/06/21 10:24:03;;;;;;;;;;;21.00;79.60;;;;;;5074942;28;19924;-83
2022/06/21 10:26:37;;;;;;;;;;;21.10;77.80;;;;;;5096523;28;19931;-83
2022/06/21 10:29:23;;;;;;;;;;;21.20;77.40;;;;;;5099917;28;19924;-84
2022/06/21 10:32:04;;;;;;;;;;;20.30;77.50;;;;;;5097996;28;19928;-82
2022/06/21 10:34:41;;;;;;;;;;;21.50;78.20;;;;;;5094440;28;19928;-82
2022/06/21 10:37:21;;;;;;;;;;;21.80;78.70;;;;;;5091017;28;19924;-83
2022/06/21 10:40:02;;;;;;;;;;;21.80;75.30;;;;;;5075452;28;19928;-83
2022/06/21 10:42:49;;;;;;;;;;;22.20;78.00;;;;;;5074202;28;19928;-83
2022/06/21 10:45:19;;;;;;;;;;;22.40;76.00;;;;;;5094851;28;19931;-83
2022/06/21 10:47:46;;;;;;;;;;;22.50;77.50;;;;;;5094055;28;19928;-81
2022/06/21 10:50:23;;;;;;;;;;;22.60;70.60;;;;;;5087369;28;19928;-84
2022/06/21 10:53:18;;;;;;;;;;;22.80;74.60;;;;;;5087806;28;20424;-83
2022/06/21 10:55:48;;;;;;;;;;;22.90;73.00;;;;;;5087595;28;19924;-84
2022/06/21 10:58:24;;;;;;;;;;;23.00;72.90;;;;;;5092713;28;19928;-81
2022/06/21 11:03:55;;;;;;;;;;;23.20;74.10;;;;;;5041074;28;19925;-84
2022/06/21 11:06:36;;;;;;;;;;;23.20;74.40;;;;;;5066238;28;19925;-82
2022/06/21 11:09:11;;;;;;;;;;;23.20;73.60;;;;;;5070447;28;19928;-84
2022/06/21 11:11:42;;;;;;;;;;;23.30;75.10;;;;;;5058931;28;19936;-83
2022/06/21 11:14:41;;;;;;;;;;;23.40;74.90;;;;;;5081363;28;19932;-83
2022/06/21 11:17:29;;;;;;;;;;;23.60;71.20;;;;;;5081773;28;19931;-84
2022/06/21 11:20:04;;;;;;;;;;;23.70;71.80;;;;;;5080553;28;19931;-85
2022/06/21 11:22:39;;;;;;;;;;;23.80;72.10;;;;;;5089357;28;19939;-85
2022/06/21 11:25:18;;;;;;;;;;;24.00;71.30;;;;;;5048222;28;19931;-85
2022/06/21 11:27:48;;;;;;;;;;;24.10;70.80;;;;;;5073857;28;19928;-85
2022/06/21 11:30:17;;;;;;;;;;;24.20;69.70;;;;;;5068690;28;19935;-84
2022/06/21 11:33:03;;;;;;;;;;;24.30;70.00;;;;;;5058446;28;19924;-84
2022/06/21 11:35:43;;;;;;;;;;;24.40;69.90;;;;;;5063784;28;19932;-83
2022/06/21 11:38:32;;;;;;;;;;;24.50;69.60;;;;;;5089390;28;19924;-84
2022/06/21 11:41:04;;;;;;;;;;;24.50;69.10;;;;;;5065960;28;19925;-83
2022/06/21 11:43:49;;;;;;;;;;;24.60;67.40;;;;;;5079861;28;19925;-86
2022/06/21 11:46:26;;;;;;;;;;;24.60;68.20;;;;;;5059164;28;19931;-85
2022/06/21 11:49:16;;;;;;;;;;;24.30;67.00;;;;;;5094170;28;19924;-84
2022/06/21 11:52:21;;;;;;;;;;;24.60;67.90;;;;;;5084300;28;19924;-82
2022/06/21 11:54:56;;;;;;;;;;;24.60;66.60;;;;;;5070280;28;19936;-83
2022/06/21 11:57:38;;;;;;;;;;;24.50;67.90;;;;;;5109452;28;19934;-83
2022/06/21 12:00:10;;;;;;;;;;;23.60;66.10;;;;;;5089220;28;19928;-83
2022/06/21 12:02:45;;;;;;;;;;;24.50;66.60;;;;;;5083310;28;19939;-84
2022/06/21 12:05:20;;;;;;;;;;;24.40;67.20;;;;;;5098869;28;19935;-84
2022/06/21 12:07:55;;;;;;;;;;;24.50;68.50;;;;;;5085193;28;19932;-83
2022/06/21 12:10:27;;;;;;;;;;;24.60;66.70;;;;;;5097628;28;19928;-83
2022/06/21 12:13:00;;;;;;;;;;;24.70;66.30;;;;;;5081462;28;19924;-83
2022/06/21 12:15:50;;;;;;;;;;;24.80;67.70;;;;;;5088524;28;19935;-84
2022/06/21 12:18:20;;;;;;;;;;;24.80;67.40;;;;;;5099809;28;19931;-84
2022/06/21 12:21:00;;;;;;;;;;;24.80;66.60;;;;;;5082933;28;19931;-84
2022/06/21 12:23:36;;;;;;;;;;;25.00;66.60;;;;;;5098818;28;19924;-83
2022/06/21 12:26:05;;;;;;;;;;;25.00;65.20;;;;;;5096895;28;19924;-84
2022/06/21 12:28:37;;;;;;;;;;;25.10;65.90;;;;;;5098994;28;19924;-84
2022/06/21 12:31:12;;;;;;;;;;;25.20;64.40;;;;;;5092331;28;19928;-84
2022/06/21 12:33:42;;;;;;;;;;;25.20;65.40;;;;;;5101210;28;19935;-84
2022/06/21 12:36:22;;;;;;;;;;;25.30;65.80;;;;;;5097286;28;19924;-84
2022/06/21 12:38:56;;;;;;;;;;;24.30;65.10;;;;;;5090430;28;19942;-83
2022/06/21 12:41:43;;;;;;;;;;;25.40;66.00;;;;;;5100494;28;19935;-86
2022/06/21 12:44:29;;;;;;;;;;;25.50;67.00;;;;;;5098197;28;19928;-84
2022/06/21 12:47:10;;;;;;;;;;;25.60;67.00;;;;;;5100521;28;19931;-85
2022/06/21 12:49:42;;;;;;;;;;;25.80;66.00;;;;;;5097879;28;19928;-86
2022/06/21 12:52:13;;;;;;;;;;;26.40;65.00;;;;;;5082017;28;19928;-86
2022/06/21 12:54:57;;;;;;;;;;;26.20;64.20;;;;;;5100373;28;19928;-86
2022/06/21 12:57:32;;;;;;;;;;;26.20;64.70;;;;;;5113194;28;19935;-85
2022/06/21 13:00:03;;;;;;;;;;;26.30;65.70;;;;;;5084263;28;19928;-84
2022/06/21 13:02:39;;;;;;;;;;;26.40;65.80;;;;;;5095187;28;19924;-85
2022/06/21 13:05:18;;;;;;;;;;;26.40;66.90;;;;;;5078881;28;20170;-87
2022/06/21 13:08:05;;;;;;;;;;;26.60;66.90;;;;;;5081135;28;19933;-88
2022/06/21 13:10:48;;;;;;;;;;;26.80;65.90;;;;;;5098170;28;19925;-85
2022/06/21 13:13:39;;;;;;;;;;;27.10;66.40;;;;;;5096140;28;19924;-85
2022/06/21 13:16:27;;;;;;;;;;;27.30;65.60;;;;;;5096864;28;19928;-85
2022/06/21 13:19:14;;;;;;;;;;;28.10;66.10;;;;;;5071913;28;20148;-88
2022/06/21 13:22:00;;;;;;;;;;;27.70;63.40;;;;;;5081957;28;19935;-90
2022/06/21 13:24:40;;;;;;;;;;;27.80;63.80;;;;;;5094847;28;20415;-89
2022/06/21 13:27:11;;;;;;;;;;;27.80;61.60;;;;;;5077386;28;19935;-89
2022/06/21 13:29:59;;;;;;;;;;;27.60;61.80;;;;;;5079985;28;19943;-91
2022/06/21 13:32:32;;;;;;;;;;;26.70;61.80;;;;;;5084806;28;19931;-88
2022/06/21 13:35:43;;;;;;;;;;;27.20;61.30;;;;;;5086758;28;19951;-88
2022/06/21 13:38:28;;;;;;;;;;;26.80;60.90;;;;;;5091080;28;19915;-88
2022/06/21 13:42:37;;;;;;;;;;;26.50;59.50;;;;;;5064736;28;19931;-87
2022/06/21 13:44:18;;;;;;;;;;;26.30;60.60;;;;;;5081840;28;19932;-87
2022/06/21 13:46:49;;;;;;;;;;;26.20;60.40;;;;;;5081553;28;19935;-88
2022/06/21 13:49:23;;;;;;;;;;;26.10;61.20;;;;;;5087718;28;19936;-88
2022/06/21 13:52:06;;;;;;;;;;;26.20;59.60;;;;;;5097470;28;19929;-87
2022/06/21 13:54:47;;;;;;;;;;;26.30;60.00;;;;;;5096212;28;19924;-88
2022/06/21 13:57:36;;;;;;;;;;;26.40;59.10;;;;;;5095320;28;19928;-87
2022/06/21 14:00:06;;;;;;;;;;;26.50;59.80;;;;;;5099676;28;19931;-87
2022/06/21 14:03:06;;;;;;;;;;;26.30;58.00;;;;;;5082084;28;19928;-87
2022/06/21 14:05:37;;;;;;;;;;;26.20;58.80;;;;;;5097872;28;19924;-89
2022/06/21 14:08:16;;;;;;;;;;;26.10;59.50;;;;;;5101792;28;19935;-87
2022/06/21 14:10:51;;;;;;;;;;;26.20;59.50;;;;;;5101915;28;19938;-88
2022/06/21 14:13:26;;;;;;;;;;;26.40;59.40;;;;;;5088802;28;19928;-87
2022/06/21 14:15:58;;;;;;;;;;;26.50;59.50;;;;;;5099338;28;19928;-87
2022/06/21 14:18:52;;;;;;;;;;;26.60;59.10;;;;;;5090480;28;19924;-88
2022/06/21 14:21:21;;;;;;;;;;;26.80;59.40;;;;;;5084390;28;19935;-87
2022/06/21 14:24:26;;;;;;;;;;;27.00;59.40;;;;;;5090559;28;20448;-88
2022/06/21 14:27:03;;;;;;;;;;;27.10;59.40;;;;;;5086866;28;19924;-86
2022/06/21 14:29:41;;;;;;;;;;;27.40;59.60;;;;;;5097015;28;20323;-88
2022/06/21 14:32:14;;;;;;;;;;;27.60;60.00;;;;;;5075317;28;19929;-88
2022/06/21 14:34:46;;;;;;;;;;;27.70;59.90;;;;;;5088156;28;20557;-86
2022/06/21 14:37:42;;;;;;;;;;;27.80;59.90;;;;;;5076319;28;19935;-86
2022/06/21 14:40:50;;;;;;;;;;;28.10;59.40;;;;;;5064794;28;19924;-86
2022/06/21 14:43:28;;;;;;;;;;;28.60;59.80;;;;;;5075856;28;19928;-85
2022/06/21 14:46:04;;;;;;;;;;;28.60;59.90;;;;;;5061860;28;19928;-87
2022/06/21 14:48:53;;;;;;;;;;;28.70;59.80;;;;;;5083008;28;19954;-87
2022/06/21 14:51:38;;;;;;;;;;;29.10;59.20;;;;;;5098471;28;20762;-88
2022/06/21 14:54:14;;;;;;;;;;;29.50;59.30;;;;;;5116449;28;19934;-87
2022/06/21 14:56:45;;;;;;;;;;;29.80;59.50;;;;;;5097640;28;19928;-87
2022/06/21 14:59:25;;;;;;;;;;;30.10;58.80;;;;;;5088264;28;19924;-88
2022/06/21 15:02:36;;;;;;;;;;;30.30;59.00;;;;;;5122749;28;19943;-87
2022/06/21 15:05:22;;;;;;;;;;;30.50;59.10;;;;;;5137307;27;19924;-87
2022/06/21 15:07:50;;;;;;;;;;;30.70;58.90;;;;;;5121458;28;19939;-88
2022/06/21 15:10:24;;;;;;;;;;;30.80;58.90;;;;;;5116747;28;19932;-86
2022/06/21 15:13:08;;;;;;;;;;;30.80;58.80;;;;;;5097732;28;19931;-87
2022/06/21 15:16:11;;;;;;;;;;;30.70;59.40;;;;;;5100306;28;19955;-87
2022/06/21 15:18:47;;;;;;;;;;;30.60;59.30;;;;;;5083382;28;19924;-90
2022/06/21 15:21:16;;;;;;;;;;;30.70;59.70;;;;;;5114830;28;20692;-88
2022/06/21 15:24:06;;;;;;;;;;;31.00;59.60;;;;;;5083669;28;19939;-88
2022/06/21 15:26:55;;;;;;;;;;;33.10;60.80;;;;;;5117584;28;19962;-88
2022/06/21 15:29:26;;;;;;;;;;;31.30;58.90;;;;;;5101985;28;19923;-89
2022/06/21 15:31:58;;;;;;;;;;;31.50;59.00;;;;;;5119349;28;19924;-87
2022/06/21 15:34:31;;;;;;;;;;;31.70;58.20;;;;;;4745510;28;10000451;-87